• Join FlightAware (Why Join?)
  • Login
  • US Flag 
05:02AM EDT


 

Airport Tracker/Info


-or-


 

Live Flight TrackerFlight Track Log ✈ N240JK ✈ 23-Jun-2013 ✈ KECG - KUES

Flight Track Log - Related Links

Times and Time Zones

All times are in EDT time to prevent confusion due to time zone crossing. See the N240JK flight status page for this flight to view local times or setup timezone preferences in your user account.

Time Position Orientation Groundspeed Altitude Reporting Facility
EDT Latitude Longitude Course Direction KTS MPH feet Rate Location/Type
10:45AM 36.2628 -76.2411 274° West 196 226 4,800  Level Washington Center
10:46AM 36.2686 -76.2928 278° West 209 241 7,800 3,540 Climbing Washington Center
10:47AM 36.2869 -76.3753 285° West 281 323 10,600 3,420 Climbing Washington Center
10:48AM 36.3556 -76.4172 334° Northwest 306 352 14,600 3,540 Climbing Washington Center
10:49AM 36.4344 -76.4750 329° Northwest 329 379 17,600 2,820 Climbing Washington Center
10:50AM 36.5217 -76.5353 331° Northwest 340 391 20,300 2,640 Climbing Washington Center
10:51AM 36.6108 -76.6011 329° Northwest 357 411 22,900 2,220 Climbing Washington Center
10:52AM 36.6875 -76.6564 330° Northwest 370 426 24,800 2,280 Climbing Washington Center
10:53AM 36.7953 -76.7331 330° Northwest 388 447 27,500 2,460 Climbing Washington Center
10:54AM 36.8947 -76.8047 330° Northwest 402 463 29,800 2,040 Climbing Washington Center
10:55AM 36.9836 -76.8972 320° Northwest 407 468 31,700 1,920 Climbing Washington Center
10:56AM 37.0572 -77.0208 307° West 419 482 33,700 1,620 Climbing Washington Center
10:57AM 37.1350 -77.1447 308° West 443 510 35,000 600 Climbing Washington Center
10:58AM 37.2186 -77.2742 309° West 467 537 35,000  Level Washington Center
10:59AM 37.3022 -77.4092 308° West 485 558 35,000 60 Level Washington Center
11:00AM 37.4042 -77.5683 309° West 490 564 35,200 420 Climbing Washington Center
11:01AM 37.4853 -77.7014 308° West 490 564 36,000 360 Climbing Washington Center
11:02AM 37.5664 -77.8319 308° West 490 564 36,000 420 Level Washington Center
11:03AM 37.6492 -77.9681 308° West 490 564 36,900 1,620 Climbing Washington Center
11:04AM 37.7300 -78.0967 308° West 490 564 39,300 1,500 Climbing Washington Center
11:05AM 37.8128 -78.2256 309° West 485 558 40,000 300 Climbing Washington Center
11:06AM 37.8992 -78.3708 307° West 480 552 40,000  Level Washington Center
11:07AM 37.9817 -78.5031 308° West 480 552 40,000  Level Washington Center
11:08AM 38.0617 -78.6406 306° West 475 547 40,000  Level Washington Center
11:09AM 38.1394 -78.7703 307° West 475 547 40,000  Level Washington Center
11:10AM 38.1975 -78.8653 308° West 475 547 40,000  Level Washington Center
11:11AM 38.2931 -79.0283 307° West 475 547 40,000  Level Washington Center
11:12AM 38.3725 -79.1617 307° West 475 547 40,000  Level Washington Center
11:13AM 38.4578 -79.3092 306° West 475 547 40,000  Level Washington Center
11:14AM 38.5369 -79.4431 307° West 475 547 40,000  Level Washington Center
11:15AM 38.6158 -79.5800 306° West 470 541 40,000  Level Washington Center
11:16AM 38.6889 -79.7011 308° West 470 541 40,000  Level Washington Center
11:17AM 38.7656 -79.8383 306° West 470 541 40,000  Level Washington Center
11:18AM 38.8322 -79.9500 307° West 476 548 40,000  Level Indianapolis Center
11:19AM 38.9150 -80.0936 307° West 476 548 40,000  Level Indianapolis Center
11:20AM 39.0044 -80.2508 306° West 477 549 40,000  Level Indianapolis Center
11:21AM 39.0847 -80.3867 307° West 480 552 40,000  Level Indianapolis Center
11:22AM 39.1608 -80.5233 306° West 473 544 40,000  Level Indianapolis Center
11:23AM 39.2406 -80.6614 307° West 482 555 40,000  Level Indianapolis Center
11:24AM 39.3167 -80.7986 306° West 475 547 40,000  Level Indianapolis Center
11:25AM 39.3944 -80.9369 306° West 477 549 40,000  Level Indianapolis Center
11:26AM 39.4731 -81.0781 306° West 485 558 40,000  Level Indianapolis Center
11:27AM 39.5658 -81.2447 306° West 478 550 40,000  Level Indianapolis Center
11:28AM 39.6439 -81.3856 306° West 481 554 40,000  Level Indianapolis Center
11:29AM 39.7194 -81.5253 305° West 482 555 40,000  Level Indianapolis Center
11:30AM 39.7994 -81.6675 306° West 483 556 40,000  Level Indianapolis Center
11:31AM 39.8778 -81.8117 305° West 484 557 40,000  Level Indianapolis Center
11:32AM 39.9689 -81.9783 306° West 482 555 40,000  Level Indianapolis Center
11:33AM 40.0469 -82.1219 305° West 480 552 40,000 -60 Level Indianapolis Center
11:34AM 40.1242 -82.2639 305° West 478 550 39,900  Descending Indianapolis Center
11:35AM 40.1992 -82.4036 305° West 470 541 40,000  Climbing Indianapolis Center
11:36AM 40.2694 -82.5369 305° West 465 535 40,000  Level Indianapolis Center
11:37AM 40.3444 -82.6789 305° West 467 537 40,000  Level Indianapolis Center
11:38AM 40.4219 -82.8250 305° West 467 537 40,000  Level Indianapolis Center
11:39AM 40.4956 -82.9644 305° West 463 533 40,000  Level Indianapolis Center
11:41AM 40.5800 -83.1253 305° West 464 534 40,000  Level Indianapolis Center
11:42AM 40.6556 -83.2689 305° West 465 535 40,000  Level Indianapolis Center
11:43AM 40.7272 -83.4111 304° West 464 534 40,000  Level Indianapolis Center
11:44AM 40.8006 -83.5511 305° West 463 533 40,000  Level Indianapolis Center
11:45AM 40.8733 -83.6931 304° West 463 533 40,000  Level Indianapolis Center
11:46AM 40.9456 -83.8364 304° West 464 534 40,000  Level Indianapolis Center
11:47AM 41.0194 -83.9786 305° West 465 535 40,000  Level Indianapolis Center
11:48AM 41.0925 -84.1244 304° West 468 539 40,000  Level Indianapolis Center
11:48AM 41.1489 -84.2353 304° West 465 535 40,000  Level Chicago Center
11:50AM 41.2219 -84.3792 304° West 469 540 40,000  Level Chicago Center
11:51AM 41.3467 -84.4939 325° Northwest 459 528 40,000  Level Chicago Center
11:52AM 41.4561 -84.5842 328° Northwest 462 532 40,000  Level Chicago Center
11:53AM 41.5656 -84.6742 328° Northwest 465 535 40,000  Level Chicago Center
11:55AM 41.7831 -84.8536 328° Northwest 463 533 40,000  Level Chicago Center
11:56AM 41.8925 -84.9444 328° Northwest 466 536 40,000  Level Chicago Center
11:57AM 42.0067 -85.0408 328° Northwest 464 534 40,000  Level Chicago Center
11:58AM 42.1175 -85.1328 328° Northwest 468 539 40,000  Level Chicago Center
11:59AM 42.2500 -85.2439 328° Northwest 467 537 40,000  Level Chicago Center
12:00PM 42.3594 -85.3386 327° Northwest 468 539 40,000 -660 Level Chicago Center
12:01PM 42.4697 -85.4333 328° Northwest 470 541 38,700 -1,620 Descending Chicago Center
12:02PM 42.5811 -85.5322 327° Northwest 471 542 36,800 -2,040 Descending Chicago Center
12:03PM 42.6567 -85.6672 307° West 474 545 34,500 -2,280 Descending Chicago Center
12:04PM 42.7122 -85.8283 295° West 470 541 32,100 -2,280 Descending Chicago Center
12:05PM 42.7725 -85.9897 297° West 472 543 29,800 -2,340 Descending Chicago Center
12:06PM 42.8342 -86.1544 297° West 476 548 27,300 -2,520 Descending Chicago Center
12:07PM 42.9067 -86.3475 297° West 472 543 24,700 -1,860 Descending Chicago Center
12:08PM 42.9636 -86.5036 297° West 459 528 23,500 -1,560 Descending Chicago Center
12:09PM 43.0178 -86.6569 296° West 445 512 21,500 -1,800 Descending Chicago Center
12:10PM 43.0703 -86.8092 295° West 440 506 19,800 -1,740 Descending Chicago Center
12:11PM 43.1256 -86.9556 297° West 433 498 18,000 -1,620 Descending Chicago Center
12:12PM 43.1508 -87.1078 283° West 416 479 16,500 -1,500 Descending Chicago Center
12:13PM 43.1447 -87.2639 267° West 413 475 15,000 -1,560 Descending Chicago Center
12:14PM 43.1481 -87.4256 272° West 392 451 13,300 -1,680 Descending Chicago Center
12:15PM 43.1542 -87.5908 273° West 369 425 11,600 -1,500 Descending Chicago Center
12:16PM 43.1472 -87.7111 266° West 310 357 10,300 -1,440 Descending Chicago Center
12:17PM 43.1275 -87.8050 254° West 260 299 8,700 -1,740 Descending Chicago Center
12:18PM 43.1083 -87.8936 254° West 244 281 6,800 -1,860 Descending Chicago Center
12:19PM 43.0900 -87.9814 254° West 241 277 4,900 -1,860 Descending Chicago Center
12:20PM 43.0722 -88.0664 254° West 235 270 3,100 -1,200 Descending Chicago Center
12:21PM 43.0417 -88.1350 239° Southwest 185 213 2,500 -660 Descending Chicago Center
12:23PM 43.0336 -88.1869 258° West 160 184 1,800 -600 Descending Chicago Center
12:24PM 43.0422 -88.2406 282° West 151 174 1,300 -540 Descending Chicago Center